Time;durP1;ratioP1;P1;durP2;ratioP2;P2;SDS_P1;SDS_P2;PMS_P1;PMS_P2;Temp;Humidity;BMP_temperature;BMP_pressure;BME280_temperature;BME280_humidity;BME280_pressure;Samples;Min_cycle;Max_cycle;Signal;HPM_P1;HPM_P2
2022/11/03 00:01:10;;;;;;;26.85;10.63;;;4.20;99.90;;;;;;4987810;28;20022;-73
2022/11/03 00:03:36;;;;;;;23.92;10.35;;;4.20;99.90;;;;;;4988592;28;20104;-71
2022/11/03 00:06:05;;;;;;;29.13;10.68;;;4.20;99.90;;;;;;4984654;28;20510;-70
2022/11/03 00:08:40;;;;;;;23.35;10.48;;;4.10;99.90;;;;;;4983537;28;20105;-71
2022/11/03 00:11:11;;;;;;;23.63;9.48;;;4.10;99.90;;;;;;4987491;28;20030;-72
2022/11/03 00:13:39;;;;;;;21.90;9.45;;;4.10;99.90;;;;;;4990706;28;20077;-73
2022/11/03 00:16:05;;;;;;;22.85;10.68;;;4.10;99.90;;;;;;4985933;28;20699;-71
2022/11/03 00:18:31;;;;;;;24.63;10.27;;;4.20;99.90;;;;;;4987547;28;20574;-72
2022/11/03 00:21:01;;;;;;;23.85;9.95;;;4.20;99.90;;;;;;4988620;28;20041;-72
2022/11/03 00:23:30;;;;;;;18.70;8.88;;;4.20;99.90;;;;;;4982866;28;20072;-70
2022/11/03 00:26:06;;;;;;;17.70;8.73;;;4.20;99.90;;;;;;4983072;28;20069;-73
2022/11/03 00:28:32;;;;;;;16.95;8.32;;;4.30;99.90;;;;;;4987330;28;20495;-73
2022/11/03 00:31:00;;;;;;;20.02;8.57;;;4.20;99.90;;;;;;4988259;28;20068;-72
2022/11/03 00:33:26;;;;;;;17.58;8.80;;;4.20;99.90;;;;;;4985785;28;20175;-72
2022/11/03 00:36:00;;;;;;;17.17;8.43;;;4.30;99.90;;;;;;4988313;28;20042;-74
2022/11/03 00:38:26;;;;;;;20.13;9.25;;;4.20;99.90;;;;;;4988569;28;20061;-72
2022/11/03 00:40:56;;;;;;;21.45;9.00;;;4.20;99.90;;;;;;4988403;28;20037;-76
2022/11/03 00:43:23;;;;;;;18.57;9.53;;;4.20;99.90;;;;;;4988144;28;20042;-73
2022/11/03 00:45:48;;;;;;;18.77;8.35;;;4.20;99.90;;;;;;4983004;28;20397;-72
2022/11/03 00:48:30;;;;;;;20.85;8.23;;;4.20;99.90;;;;;;4984083;28;20122;-72
2022/11/03 00:51:15;;;;;;;19.30;8.18;;;4.20;99.90;;;;;;4987610;28;20038;-74
2022/11/03 00:53:46;;;;;;;19.17;8.65;;;4.20;99.90;;;;;;4984590;28;20506;-71
2022/11/03 00:56:14;;;;;;;17.90;7.80;;;4.10;99.90;;;;;;4987190;28;20495;-72
2022/11/03 00:58:41;;;;;;;18.83;8.50;;;4.20;99.90;;;;;;4985516;28;20030;-71
2022/11/03 01:01:10;;;;;;;20.75;9.02;;;4.10;99.90;;;;;;4987550;28;20120;-72
2022/11/03 01:03:38;;;;;;;18.52;9.00;;;3.80;99.90;;;;;;4982422;28;20026;-72
2022/11/03 01:08:52;;;;;;;23.33;8.48;;;3.60;99.90;;;;;;4984408;28;20037;-74
2022/11/03 01:14:05;;;;;;;17.13;8.52;;;3.60;99.90;;;;;;4988186;28;20185;-71
2022/11/03 01:16:31;;;;;;;19.85;8.82;;;3.50;99.90;;;;;;4985420;28;20030;-71
2022/11/03 01:18:57;;;;;;;16.95;8.32;;;3.40;99.90;;;;;;4986740;28;20030;-76
2022/11/03 01:21:23;;;;;;;17.65;8.20;;;3.40;99.90;;;;;;4986465;28;20116;-74
2022/11/03 01:23:49;;;;;;;22.45;8.38;;;3.30;99.90;;;;;;4985445;28;20030;-72
2022/11/03 01:26:15;;;;;;;19.08;8.57;;;3.20;99.90;;;;;;4987748;28;20038;-73
2022/11/03 01:28:43;;;;;;;19.75;8.05;;;3.20;99.90;;;;;;4987735;28;20091;-71
2022/11/03 01:31:18;;;;;;;20.05;8.48;;;3.20;99.90;;;;;;4982553;28;20084;-71
2022/11/03 01:33:44;;;;;;;17.20;8.32;;;3.30;99.90;;;;;;4981275;28;20483;-73
2022/11/03 01:36:11;;;;;;;18.77;8.00;;;3.20;99.90;;;;;;4984758;28;20122;-74
2022/11/03 01:38:37;;;;;;;19.77;8.02;;;3.20;99.90;;;;;;4983855;28;20035;-75
2022/11/03 01:41:05;;;;;;;19.23;7.90;;;3.30;99.90;;;;;;4986857;28;20125;-74
2022/11/03 01:43:32;;;;;;;18.35;7.70;;;3.40;99.90;;;;;;4987853;28;20089;-72
2022/11/03 01:46:17;;;;;;;19.10;7.80;;;3.40;99.90;;;;;;4985562;28;20705;-76
2022/11/03 01:49:06;;;;;;;21.73;8.68;;;3.50;99.90;;;;;;4986148;28;20851;-71
2022/11/03 01:51:33;;;;;;;15.48;7.55;;;3.60;99.90;;;;;;4986100;28;20038;-72
2022/11/03 01:54:04;;;;;;;19.45;8.18;;;3.50;99.90;;;;;;4985453;28;20030;-76
2022/11/03 01:56:34;;;;;;;20.83;8.20;;;3.40;99.90;;;;;;4986191;28;20109;-71
2022/11/03 01:59:00;;;;;;;21.00;8.15;;;3.40;99.90;;;;;;4986793;28;20035;-76
2022/11/03 02:01:26;;;;;;;20.00;7.93;;;3.30;99.90;;;;;;4985462;28;20109;-71
2022/11/03 02:03:57;;;;;;;22.52;8.32;;;3.30;99.90;;;;;;4987381;28;20563;-72
2022/11/03 02:06:26;;;;;;;18.92;8.55;;;3.30;99.90;;;;;;4982587;28;20026;-72
2022/11/03 02:08:57;;;;;;;18.85;8.18;;;3.30;99.90;;;;;;4986043;28;20045;-73
2022/11/03 02:14:14;;;;;;;19.63;7.88;;;3.20;99.90;;;;;;4985830;28;20036;-71
2022/11/03 02:16:48;;;;;;;20.35;7.57;;;3.20;99.90;;;;;;4986498;28;20052;-71
2022/11/03 02:19:28;;;;;;;27.40;8.73;;;3.20;99.90;;;;;;4986743;28;20061;-71
2022/11/03 02:22:32;;;;;;;20.87;8.30;;;3.10;99.90;;;;;;4985760;28;20053;-72
2022/11/03 02:25:25;;;;;;;19.05;7.55;;;3.20;99.90;;;;;;4986431;28;20045;-73
2022/11/03 02:27:51;;;;;;;21.55;8.18;;;3.20;99.90;;;;;;4983692;28;20069;-70
2022/11/03 02:30:16;;;;;;;20.30;7.90;;;3.30;99.90;;;;;;4987408;28;20398;-70
2022/11/03 02:32:54;;;;;;;18.13;7.78;;;3.50;99.90;;;;;;4984385;28;20459;-71
2022/11/03 02:35:30;;;;;;;21.20;8.35;;;3.40;99.90;;;;;;4985879;28;20030;-71
2022/11/03 02:37:59;;;;;;;17.15;7.28;;;3.30;99.90;;;;;;4986896;28;20054;-71
2022/11/03 02:40:31;;;;;;;17.43;7.60;;;3.20;99.90;;;;;;4986386;28;20042;-71
2022/11/03 02:42:58;;;;;;;23.10;8.15;;;3.10;99.90;;;;;;4983997;28;20034;-71
2022/11/03 02:45:25;;;;;;;19.75;7.57;;;3.10;99.90;;;;;;4985442;28;20074;-73
2022/11/03 02:47:54;;;;;;;20.35;7.85;;;3.10;99.90;;;;;;4989436;28;20050;-71
2022/11/03 02:50:24;;;;;;;18.05;7.75;;;3.00;99.90;;;;;;4988762;28;20034;-71
2022/11/03 02:52:51;;;;;;;21.92;7.82;;;3.10;99.90;;;;;;4988206;28;20061;-71
2022/11/03 02:55:40;;;;;;;17.30;8.30;;;3.00;99.90;;;;;;4990040;28;20066;-71
2022/11/03 02:58:10;;;;;;;17.02;6.00;;;2.80;99.90;;;;;;4990013;28;20109;-72
2022/11/03 03:00:49;;;;;;;19.08;7.32;;;3.00;99.90;;;;;;4990098;28;20030;-72
2022/11/03 03:03:25;;;;;;;20.42;8.52;;;3.40;99.90;;;;;;4986204;28;20391;-73
2022/11/03 03:05:53;;;;;;;16.60;6.95;;;3.30;99.90;;;;;;4982924;28;20050;-71
2022/11/03 03:08:21;;;;;;;19.50;6.82;;;3.50;99.90;;;;;;4988927;28;20030;-71
2022/11/03 03:10:48;;;;;;;18.25;8.52;;;4.10;99.90;;;;;;4990595;28;20038;-71
2022/11/03 03:13:18;;;;;;;19.10;7.82;;;4.10;99.90;;;;;;4989143;28;20391;-73
2022/11/03 03:15:52;;;;;;;18.42;7.90;;;3.90;99.90;;;;;;4988155;28;20112;-73
2022/11/03 03:18:50;;;;;;;17.90;7.25;;;3.90;99.90;;;;;;4987199;28;20050;-71
2022/11/03 03:21:25;;;;;;;18.50;7.18;;;3.70;99.90;;;;;;4986544;28;20042;-71
2022/11/03 03:23:57;;;;;;;16.92;7.50;;;3.60;99.90;;;;;;4990836;28;20085;-70
2022/11/03 03:26:25;;;;;;;16.20;6.88;;;3.40;99.90;;;;;;4987989;28;20034;-70
2022/11/03 03:28:58;;;;;;;18.73;6.00;;;3.30;99.90;;;;;;4988623;28;20483;-72
2022/11/03 03:31:28;;;;;;;15.77;7.45;;;3.80;99.90;;;;;;4986976;28;20028;-72
2022/11/03 03:33:56;;;;;;;15.68;7.00;;;3.90;99.90;;;;;;4990134;28;20033;-72
2022/11/03 03:36:25;;;;;;;16.75;7.00;;;3.80;99.90;;;;;;4989084;28;20045;-75
2022/11/03 03:38:57;;;;;;;17.75;7.47;;;3.70;99.90;;;;;;4988861;28;20058;-71
2022/11/03 03:41:25;;;;;;;15.45;7.00;;;3.60;99.90;;;;;;4989472;28;20027;-71
2022/11/03 03:43:53;;;;;;;13.35;6.72;;;3.50;99.90;;;;;;4989289;28;20053;-71
2022/11/03 03:46:22;;;;;;;16.45;7.05;;;3.60;99.90;;;;;;4986033;28;20117;-70
2022/11/03 03:48:48;;;;;;;18.40;6.55;;;3.70;99.90;;;;;;4989635;28;20046;-71
2022/11/03 03:51:17;;;;;;;16.92;7.07;;;4.00;99.90;;;;;;4987320;28;20118;-72
2022/11/03 03:53:43;;;;;;;17.27;6.57;;;4.30;99.90;;;;;;4990267;28;21689;-72
2022/11/03 03:56:09;;;;;;;14.57;6.47;;;3.90;99.90;;;;;;4988152;28;20109;-72
2022/11/03 03:58:34;;;;;;;22.73;6.05;;;4.00;99.90;;;;;;4988910;28;20031;-71
2022/11/03 04:01:00;;;;;;;15.93;5.88;;;4.00;99.90;;;;;;4989186;28;20341;-71
2022/11/03 04:03:28;;;;;;;16.90;6.40;;;4.40;99.90;;;;;;4985061;28;20238;-75
2022/11/03 04:05:53;;;;;;;16.95;6.68;;;4.70;99.90;;;;;;4981280;28;20062;-71
2022/11/03 04:08:19;;;;;;;16.70;6.75;;;4.50;99.90;;;;;;4985248;28;20101;-71
2022/11/03 04:24:29;;;;;;;15.80;5.80;;;4.30;99.90;;;;;;4993262;28;20096;-71
2022/11/03 04:27:12;;;;;;;11.90;6.28;;;4.50;99.90;;;;;;4988510;28;20464;-72
2022/11/03 04:29:38;;;;;;;12.35;5.68;;;4.10;99.90;;;;;;4989581;28;20034;-72
2022/11/03 04:32:14;;;;;;;15.93;5.10;;;3.90;99.90;;;;;;4983186;28;21742;-71
2022/11/03 04:34:41;;;;;;;20.17;5.78;;;4.30;99.90;;;;;;4987692;28;20049;-71
2022/11/03 04:37:11;;;;;;;15.98;6.90;;;5.10;99.90;;;;;;4988571;28;20026;-74
2022/11/03 04:39:37;;;;;;;15.40;6.60;;;4.60;99.90;;;;;;4988297;28;20034;-72
2022/11/03 04:42:20;;;;;;;17.15;5.78;;;4.40;99.90;;;;;;4987610;28;20049;-70
2022/11/03 04:44:47;;;;;;;16.38;6.10;;;4.70;99.90;;;;;;4988970;28;20060;-70
2022/11/03 04:47:14;;;;;;;15.88;7.00;;;5.00;99.90;;;;;;4985046;28;21438;-71
2022/11/03 04:49:41;;;;;;;20.55;7.30;;;5.00;99.90;;;;;;4989613;28;20399;-72
2022/11/03 04:52:19;;;;;;;14.50;7.13;;;5.00;99.90;;;;;;4990112;28;20039;-74
2022/11/03 04:54:47;;;;;;;16.13;6.20;;;5.00;99.90;;;;;;4986681;28;20062;-71
2022/11/03 04:57:15;;;;;;;17.05;5.68;;;4.80;99.90;;;;;;4987803;28;20026;-69
2022/11/03 04:59:44;;;;;;;19.23;7.45;;;5.20;99.90;;;;;;4989159;28;20030;-72
2022/11/03 05:02:13;;;;;;;21.65;6.35;;;5.50;99.90;;;;;;4978881;28;20026;-71
2022/11/03 05:04:41;;;;;;;26.07;6.50;;;5.70;99.90;;;;;;4988926;28;20046;-71
2022/11/03 05:07:35;;;;;;;20.23;7.82;;;6.00;99.90;;;;;;4987758;28;20026;-76
2022/11/03 05:10:03;;;;;;;20.95;7.45;;;6.40;99.90;;;;;;4988015;28;20049;-71
2022/11/03 05:12:29;;;;;;;16.08;6.75;;;6.50;99.90;;;;;;4987180;28;20023;-71
2022/11/03 05:14:55;;;;;;;24.17;7.40;;;6.70;99.90;;;;;;4988504;28;20034;-71
2022/11/03 05:17:23;;;;;;;24.13;8.00;;;6.80;99.90;;;;;;4987228;28;20031;-70
2022/11/03 05:20:00;;;;;;;18.05;6.80;;;6.90;99.90;;;;;;4989660;28;20363;-70
2022/11/03 05:22:32;;;;;;;16.00;6.97;;;7.10;99.90;;;;;;4984457;28;20042;-70
2022/11/03 05:25:02;;;;;;;17.17;6.47;;;7.10;99.90;;;;;;4974926;28;20035;-69
2022/11/03 05:27:29;;;;;;;24.05;7.05;;;7.10;99.90;;;;;;4984473;28;20034;-73
2022/11/03 05:29:58;;;;;;;19.10;6.32;;;7.10;99.90;;;;;;4976294;28;20022;-72
2022/11/03 05:32:28;;;;;;;22.60;7.10;;;7.10;99.90;;;;;;4984325;28;20077;-70
2022/11/03 05:34:55;;;;;;;14.57;5.18;;;7.10;99.90;;;;;;4989347;28;20113;-69
2022/11/03 05:37:32;;;;;;;20.50;6.95;;;7.20;99.90;;;;;;4986230;28;20034;-69
2022/11/03 05:40:18;;;;;;;17.13;7.50;;;7.30;99.90;;;;;;4986173;28;20034;-72
2022/11/03 05:42:48;;;;;;;23.17;7.47;;;7.40;99.90;;;;;;4982814;28;20038;-72
2022/11/03 05:45:32;;;;;;;18.10;7.28;;;7.50;99.90;;;;;;4981739;28;20552;-73
2022/11/03 05:48:00;;;;;;;19.30;8.23;;;7.50;99.90;;;;;;4983892;28;20133;-73
2022/11/03 05:50:28;;;;;;;17.73;7.55;;;7.50;99.90;;;;;;4976465;28;20597;-72
2022/11/03 05:53:07;;;;;;;23.80;7.35;;;7.60;99.90;;;;;;4987617;28;20034;-73
2022/11/03 05:55:35;;;;;;;21.80;8.30;;;7.40;99.90;;;;;;4986495;28;20104;-70
2022/11/03 05:58:21;;;;;;;19.98;7.90;;;7.30;99.90;;;;;;4979257;28;20459;-71
2022/11/03 06:00:46;;;;;;;22.98;8.60;;;6.90;99.90;;;;;;4985952;28;20893;-72
2022/11/03 06:03:21;;;;;;;24.65;10.05;;;7.00;99.90;;;;;;4987711;28;20034;-76
2022/11/03 06:05:46;;;;;;;27.40;9.68;;;7.10;99.90;;;;;;4986749;28;20384;-71
2022/11/03 06:08:18;;;;;;;26.88;10.02;;;7.10;99.90;;;;;;4988038;28;20046;-75
2022/11/03 06:10:53;;;;;;;26.67;9.85;;;7.10;99.90;;;;;;4977095;28;20030;-72
2022/11/03 06:13:30;;;;;;;25.80;11.05;;;7.10;99.90;;;;;;4983408;28;20509;-72
2022/11/03 06:16:07;;;;;;;26.38;10.50;;;7.20;99.90;;;;;;4986169;28;20046;-71
2022/11/03 06:18:35;;;;;;;28.02;11.25;;;7.30;99.90;;;;;;4981760;28;20626;-70
2022/11/03 06:21:17;;;;;;;27.25;11.13;;;7.30;99.90;;;;;;4988495;28;20026;-71
2022/11/03 06:23:44;;;;;;;30.92;11.35;;;7.30;99.90;;;;;;4992419;28;20036;-73
2022/11/03 06:26:17;;;;;;;27.83;11.07;;;7.30;99.90;;;;;;4991686;28;20395;-71
2022/11/03 06:28:44;;;;;;;30.73;12.20;;;7.30;99.90;;;;;;4992882;28;20022;-72
2022/11/03 06:31:31;;;;;;;30.58;12.20;;;7.40;99.90;;;;;;4998994;28;20034;-71
2022/11/03 06:33:57;;;;;;;31.25;12.40;;;7.50;99.90;;;;;;4989981;28;20038;-71
2022/11/03 06:36:33;;;;;;;35.63;12.82;;;7.50;99.90;;;;;;4988109;28;20034;-73
2022/11/03 06:39:22;;;;;;;34.88;11.23;;;7.60;99.90;;;;;;4989087;28;20483;-72
2022/11/03 06:41:47;;;;;;;38.05;13.00;;;7.60;99.90;;;;;;4990971;28;20045;-73
2022/11/03 06:44:25;;;;;;;30.90;12.55;;;7.50;99.90;;;;;;4997912;28;20042;-71
2022/11/03 06:46:54;;;;;;;38.15;13.38;;;7.60;99.90;;;;;;4989933;28;20141;-71
2022/11/03 06:49:30;;;;;;;37.70;13.13;;;7.60;99.90;;;;;;4985990;28;20034;-70
2022/11/03 06:51:58;;;;;;;24.98;11.98;;;7.70;99.90;;;;;;4988404;28;20034;-68
2022/11/03 06:54:23;;;;;;;32.33;13.23;;;7.90;99.90;;;;;;4990769;28;20065;-69
2022/11/03 06:56:49;;;;;;;31.08;13.07;;;8.10;99.90;;;;;;4989509;28;20379;-70
2022/11/03 06:59:15;;;;;;;36.75;13.77;;;8.30;99.90;;;;;;4982363;28;20097;-70
2022/11/03 07:01:41;;;;;;;29.80;12.30;;;8.40;99.90;;;;;;4989706;28;20035;-70
2022/11/03 07:04:15;;;;;;;32.03;13.68;;;8.40;99.90;;;;;;4987132;28;20052;-71
2022/11/03 07:06:42;;;;;;;31.27;12.70;;;8.50;99.90;;;;;;4989865;28;20042;-71
2022/11/03 07:09:21;;;;;;;27.75;13.30;;;8.60;99.90;;;;;;5004875;28;20033;-72
2022/11/03 07:11:52;;;;;;;21.65;9.60;;;8.70;99.90;;;;;;4993816;28;20510;-70
2022/11/03 07:14:23;;;;;;;32.20;13.60;;;8.30;99.90;;;;;;4986658;28;20399;-72
2022/11/03 07:16:51;;;;;;;31.60;13.48;;;8.20;99.90;;;;;;4991129;28;20476;-69
2022/11/03 07:19:22;;;;;;;20.75;8.70;;;8.50;99.90;;;;;;4988804;28;20030;-71
2022/11/03 07:21:50;;;;;;;25.90;10.10;;;8.30;99.90;;;;;;4990907;28;20504;-71
2022/11/03 07:24:29;;;;;;;27.33;11.88;;;8.10;99.90;;;;;;4989019;28;20049;-72
2022/11/03 07:27:05;;;;;;;29.60;12.05;;;8.20;99.90;;;;;;4991849;28;20085;-70
2022/11/03 07:29:31;;;;;;;31.17;13.20;;;8.30;99.90;;;;;;4989410;28;20113;-70
2022/11/03 07:31:58;;;;;;;29.88;14.00;;;8.60;99.90;;;;;;4991008;28;20102;-70
2022/11/03 07:34:30;;;;;;;31.13;12.88;;;8.80;99.90;;;;;;4989091;28;20062;-69
2022/11/03 07:36:57;;;;;;;32.70;12.95;;;8.90;99.90;;;;;;4992022;28;20109;-71
2022/11/03 07:39:25;;;;;;;31.55;12.30;;;9.00;99.90;;;;;;4992694;28;20356;-71
2022/11/03 07:41:51;;;;;;;32.10;13.50;;;9.10;99.90;;;;;;4991155;28;20030;-70
2022/11/03 07:44:22;;;;;;;26.70;11.55;;;9.30;99.90;;;;;;4990063;28;20053;-70
2022/11/03 07:46:49;;;;;;;24.55;10.77;;;9.40;99.90;;;;;;4989887;28;20407;-68
2022/11/03 07:49:29;;;;;;;21.25;10.57;;;9.50;99.90;;;;;;4990501;28;20050;-72
2022/11/03 07:51:58;;;;;;;25.90;10.82;;;9.50;99.90;;;;;;4992394;28;20022;-71
2022/11/03 07:54:33;;;;;;;30.63;11.05;;;9.50;99.90;;;;;;4992914;28;20097;-71
2022/11/03 07:57:25;;;;;;;19.00;10.38;;;9.50;99.90;;;;;;4990856;28;20036;-71
2022/11/03 07:59:54;;;;;;;22.55;10.63;;;9.60;99.90;;;;;;4986210;28;20375;-71
2022/11/03 08:02:34;;;;;;;21.40;10.13;;;9.60;99.90;;;;;;4985500;28;20472;-72
2022/11/03 08:05:01;;;;;;;21.40;10.27;;;9.70;99.90;;;;;;4985967;28;20038;-71
2022/11/03 08:07:27;;;;;;;22.27;10.13;;;9.70;99.90;;;;;;4985219;28;20046;-72
2022/11/03 08:09:53;;;;;;;18.83;9.32;;;9.80;99.90;;;;;;4987155;28;20077;-72
2022/11/03 08:12:19;;;;;;;19.02;9.05;;;9.80;99.90;;;;;;4985817;28;20042;-72
2022/11/03 08:14:45;;;;;;;18.75;8.88;;;9.80;99.90;;;;;;4989441;28;20050;-71
2022/11/03 08:17:11;;;;;;;21.30;9.05;;;9.90;99.90;;;;;;4983806;28;20113;-73
2022/11/03 08:19:37;;;;;;;17.42;8.73;;;9.90;99.90;;;;;;4987335;28;20701;-71
2022/11/03 08:22:02;;;;;;;19.58;8.48;;;10.00;99.90;;;;;;4987771;28;20129;-72
2022/11/03 08:24:28;;;;;;;20.85;9.00;;;10.10;99.90;;;;;;4989325;28;20032;-72
2022/11/03 08:26:54;;;;;;;17.33;8.88;;;10.20;99.90;;;;;;4987762;28;20038;-72
2022/11/03 08:29:20;;;;;;;19.13;9.93;;;10.20;99.90;;;;;;4998897;28;20030;-73
2022/11/03 08:31:46;;;;;;;18.35;9.05;;;10.20;99.90;;;;;;4986916;28;20030;-71
2022/11/03 08:34:12;;;;;;;19.25;9.05;;;10.20;99.90;;;;;;4990026;28;20053;-73
2022/11/03 08:36:37;;;;;;;19.48;9.43;;;10.30;99.90;;;;;;4985711;28;20030;-71
2022/11/03 08:39:03;;;;;;;20.35;9.45;;;10.40;99.90;;;;;;4987745;28;20527;-73
2022/11/03 08:41:29;;;;;;;24.40;9.13;;;10.40;99.90;;;;;;4991851;28;20036;-69
2022/11/03 08:43:55;;;;;;;17.48;8.55;;;10.50;99.90;;;;;;4991884;28;20053;-71
2022/11/03 08:46:21;;;;;;;16.80;7.93;;;10.50;99.90;;;;;;4988938;28;20058;-73
2022/11/03 08:48:46;;;;;;;17.33;8.18;;;10.60;99.90;;;;;;4983132;28;20038;-71
2022/11/03 08:51:13;;;;;;;17.13;7.20;;;10.70;99.90;;;;;;4989946;28;20486;-71
2022/11/03 08:53:41;;;;;;;16.73;8.30;;;10.70;99.90;;;;;;4989104;28;20610;-71
2022/11/03 08:56:07;;;;;;;14.20;7.03;;;10.80;99.90;;;;;;4993141;28;20395;-71
2022/11/03 08:58:32;;;;;;;20.70;7.72;;;10.80;99.90;;;;;;5003900;28;20038;-70
2022/11/03 09:00:58;;;;;;;14.13;6.85;;;10.80;99.90;;;;;;4988174;28;20031;-71
2022/11/03 09:03:24;;;;;;;12.27;7.13;;;11.00;99.90;;;;;;4984111;28;20034;-72
2022/11/03 09:05:49;;;;;;;14.50;6.95;;;11.10;99.90;;;;;;4988689;28;20113;-69
2022/11/03 09:08:15;;;;;;;16.45;7.32;;;11.10;99.90;;;;;;4989781;28;20038;-71
2022/11/03 09:10:41;;;;;;;17.88;7.30;;;11.20;99.90;;;;;;4988380;28;20112;-72
2022/11/03 09:13:07;;;;;;;12.30;6.55;;;11.20;99.90;;;;;;4993895;28;20062;-71
2022/11/03 09:15:33;;;;;;;13.13;5.97;;;11.30;99.90;;;;;;5002069;28;20077;-70
2022/11/03 09:17:58;;;;;;;15.40;6.30;;;11.50;99.90;;;;;;4987764;28;20062;-69
2022/11/03 09:20:24;;;;;;;12.00;5.47;;;11.70;99.90;;;;;;4973945;28;20424;-71
2022/11/03 09:22:50;;;;;;;10.82;5.35;;;11.90;99.90;;;;;;4986811;28;20026;-72
2022/11/03 09:25:16;;;;;;;11.50;5.70;;;12.10;99.90;;;;;;4971729;28;21036;-71
2022/11/03 09:27:42;;;;;;;12.15;5.55;;;12.20;99.90;;;;;;4969482;28;20110;-71
2022/11/03 09:30:08;;;;;;;12.02;5.13;;;12.20;99.90;;;;;;4970368;28;20836;-72
2022/11/03 09:32:34;;;;;;;13.95;5.85;;;12.20;99.90;;;;;;4987247;28;20521;-70
2022/11/03 09:35:00;;;;;;;12.00;5.95;;;12.10;99.90;;;;;;4988837;28;20037;-72
2022/11/03 09:37:25;;;;;;;13.07;5.65;;;12.10;99.90;;;;;;4986668;28;20442;-71
2022/11/03 09:39:51;;;;;;;8.80;5.20;;;12.10;99.90;;;;;;4989548;28;20030;-68
2022/11/03 09:42:17;;;;;;;11.98;5.15;;;12.30;99.90;;;;;;4987937;28;20069;-70
2022/11/03 09:44:45;;;;;;;7.75;4.68;;;12.40;99.90;;;;;;4988407;28;20252;-71
2022/11/03 09:47:29;;;;;;;8.07;4.45;;;12.60;99.90;;;;;;4987103;28;20054;-68
2022/11/03 09:49:56;;;;;;;12.82;4.93;;;12.70;99.90;;;;;;4988342;28;20049;-71
2022/11/03 09:52:23;;;;;;;13.02;4.72;;;12.90;99.90;;;;;;4992449;28;20398;-73
2022/11/03 09:54:51;;;;;;;11.50;4.93;;;13.00;99.90;;;;;;4990391;28;20041;-70
2022/11/03 09:57:16;;;;;;;10.13;4.70;;;13.20;99.90;;;;;;4991550;28;20049;-70
2022/11/03 09:59:49;;;;;;;7.40;4.22;;;13.30;99.90;;;;;;4991400;28;20078;-71
2022/11/03 10:02:27;;;;;;;8.73;4.63;;;13.30;99.90;;;;;;4991469;28;20038;-71
2022/11/03 10:04:55;;;;;;;8.10;4.65;;;13.30;99.90;;;;;;4993299;28;20092;-70
2022/11/03 10:07:21;;;;;;;7.97;4.18;;;13.30;99.90;;;;;;4989930;28;20554;-69
2022/11/03 10:09:50;;;;;;;8.98;4.30;;;13.50;99.90;;;;;;4990714;28;20053;-72
2022/11/03 10:12:15;;;;;;;10.45;4.05;;;13.70;99.90;;;;;;4992372;28;20041;-74
2022/11/03 10:14:44;;;;;;;10.85;4.20;;;13.90;99.90;;;;;;4990424;28;20054;-69
2022/11/03 10:17:15;;;;;;;9.45;4.20;;;14.10;99.90;;;;;;4992515;28;20031;-70
2022/11/03 10:19:42;;;;;;;8.00;3.45;;;14.20;99.90;;;;;;4990903;28;20030;-71
2022/11/03 10:22:08;;;;;;;9.45;3.40;;;14.10;99.90;;;;;;4999380;28;20025;-70
2022/11/03 10:24:34;;;;;;;7.22;3.30;;;14.10;99.90;;;;;;4986773;28;20039;-70
2022/11/03 10:27:00;;;;;;;5.22;2.85;;;14.10;99.90;;;;;;5010275;28;20036;-70
2022/11/03 10:29:27;;;;;;;6.32;3.42;;;14.30;99.90;;;;;;4991319;28;20394;-74
2022/11/03 10:31:57;;;;;;;5.82;2.85;;;14.50;99.90;;;;;;4991255;28;20677;-71
2022/11/03 10:34:36;;;;;;;6.20;2.90;;;14.60;99.90;;;;;;4992524;28;20026;-74
2022/11/03 10:37:16;;;;;;;8.60;3.90;;;14.60;99.90;;;;;;4990489;28;20034;-70
2022/11/03 10:39:42;;;;;;;8.57;3.90;;;14.50;99.90;;;;;;4982939;28;20041;-69
2022/11/03 10:42:19;;;;;;;12.15;4.53;;;14.50;99.90;;;;;;4990597;28;20476;-70
2022/11/03 10:44:45;;;;;;;7.95;4.13;;;14.40;99.90;;;;;;4989942;28;20046;-68
2022/11/03 10:47:22;;;;;;;10.25;4.13;;;14.20;99.90;;;;;;4991060;28;20057;-73
2022/11/03 10:49:48;;;;;;;9.10;4.28;;;14.10;99.90;;;;;;4991998;28;20814;-70
2022/11/03 10:52:21;;;;;;;8.93;4.68;;;13.90;99.90;;;;;;4990535;28;20088;-72
2022/11/03 10:54:48;;;;;;;7.97;4.20;;;13.60;99.90;;;;;;4990682;28;20033;-70
2022/11/03 10:57:15;;;;;;;10.02;4.10;;;13.60;99.90;;;;;;4991112;28;20110;-72
2022/11/03 10:59:42;;;;;;;10.57;4.53;;;13.50;99.90;;;;;;4998299;28;20190;-71
2022/11/03 11:02:30;;;;;;;7.78;4.22;;;13.60;99.90;;;;;;4990037;28;20026;-70
2022/11/03 11:04:58;;;;;;;12.48;4.78;;;13.70;99.90;;;;;;4987644;28;20046;-72
2022/11/03 11:07:30;;;;;;;13.35;4.55;;;13.70;99.90;;;;;;4990108;28;20030;-72
2022/11/03 11:10:11;;;;;;;8.68;4.18;;;13.50;99.90;;;;;;4987096;28;20034;-71
2022/11/03 11:12:37;;;;;;;8.43;4.45;;;13.30;99.90;;;;;;4988345;28;20031;-72
2022/11/03 11:15:38;;;;;;;10.73;4.93;;;13.30;99.90;;;;;;4989962;28;20392;-73
2022/11/03 11:18:04;;;;;;;10.43;4.50;;;13.30;99.90;;;;;;4990407;28;20499;-71
2022/11/03 11:20:38;;;;;;;11.25;4.50;;;13.40;99.90;;;;;;4992932;28;20030;-71
2022/11/03 11:23:28;;;;;;;8.00;4.47;;;13.40;99.90;;;;;;4985323;28;20038;-71
2022/11/03 11:26:09;;;;;;;9.60;4.03;;;13.40;99.90;;;;;;4989222;28;20057;-72
2022/11/03 11:28:37;;;;;;;8.35;4.32;;;13.40;99.90;;;;;;4987369;28;20038;-72
2022/11/03 11:31:21;;;;;;;8.27;4.22;;;13.50;99.90;;;;;;4987482;28;20030;-70
2022/11/03 11:33:48;;;;;;;10.43;4.32;;;13.60;99.90;;;;;;4989601;28;20027;-70
2022/11/03 11:36:23;;;;;;;14.68;4.25;;;13.50;99.90;;;;;;4988514;28;20066;-72
2022/11/03 11:38:51;;;;;;;10.90;4.40;;;13.60;99.90;;;;;;4990137;28;20038;-70
2022/11/03 11:41:17;;;;;;;9.77;4.45;;;13.60;99.90;;;;;;4988936;28;20034;-71
2022/11/03 11:43:42;;;;;;;7.40;4.28;;;13.60;99.90;;;;;;4990764;28;20459;-69
2022/11/03 11:46:39;;;;;;;7.38;3.85;;;13.70;99.90;;;;;;4988850;28;20069;-73
2022/11/03 11:49:08;;;;;;;6.55;3.90;;;13.60;99.90;;;;;;4988509;28;20045;-71
2022/11/03 11:51:35;;;;;;;6.63;3.60;;;13.60;99.90;;;;;;5006577;28;20117;-72
2022/11/03 11:54:05;;;;;;;6.80;4.03;;;13.60;99.90;;;;;;4992421;28;20038;-69
2022/11/03 11:56:31;;;;;;;7.78;3.92;;;13.70;99.90;;;;;;4990334;28;20396;-73
2022/11/03 11:58:57;;;;;;;7.30;3.83;;;13.80;99.90;;;;;;4988956;28;20037;-70
2022/11/03 12:01:28;;;;;;;7.32;3.85;;;13.80;99.90;;;;;;4989837;28;20030;-70
2022/11/03 12:04:00;;;;;;;9.32;4.00;;;13.80;99.90;;;;;;4986427;28;20038;-72
2022/11/03 12:06:37;;;;;;;12.30;3.80;;;13.70;99.90;;;;;;4988084;28;20049;-70
2022/11/03 12:09:23;;;;;;;7.93;4.05;;;13.80;99.90;;;;;;4989556;28;20026;-71
2022/11/03 12:11:52;;;;;;;7.55;3.42;;;13.70;99.90;;;;;;4984225;28;20306;-69
2022/11/03 12:14:23;;;;;;;7.78;4.05;;;13.70;99.90;;;;;;4990918;28;20145;-68
2022/11/03 12:16:49;;;;;;;7.45;3.85;;;13.70;99.90;;;;;;4988614;28;20092;-71
2022/11/03 12:19:38;;;;;;;9.90;4.15;;;13.70;99.90;;;;;;4993609;28;20030;-69
2022/11/03 12:22:24;;;;;;;7.28;4.22;;;13.70;99.90;;;;;;4991846;28;20038;-71
2022/11/03 12:24:55;;;;;;;7.95;4.25;;;13.70;99.90;;;;;;4987745;28;20574;-70
2022/11/03 12:27:23;;;;;;;33.15;15.27;;;13.60;99.90;;;;;;4990059;28;20484;-71
2022/11/03 12:30:01;;;;;;;13.80;5.88;;;13.50;99.90;;;;;;4988833;28;20038;-71
2022/11/03 12:32:27;;;;;;;9.70;4.63;;;13.50;99.90;;;;;;4986410;28;20148;-73
2022/11/03 12:34:54;;;;;;;13.88;7.35;;;13.50;99.90;;;;;;4987993;28;20495;-71
2022/11/03 12:37:20;;;;;;;9.40;4.82;;;13.60;99.90;;;;;;4975573;28;20046;-70
2022/11/03 12:39:45;;;;;;;9.15;4.68;;;13.50;99.90;;;;;;4986337;28;20100;-71
2022/11/03 12:42:11;;;;;;;8.05;4.85;;;13.50;99.90;;;;;;4982129;28;20048;-70
2022/11/03 12:44:36;;;;;;;9.73;4.78;;;13.50;99.90;;;;;;4987929;28;20491;-71
2022/11/03 12:47:02;;;;;;;11.00;5.63;;;13.50;99.90;;;;;;4987319;28;20074;-70
2022/11/03 12:49:28;;;;;;;9.77;5.03;;;13.50;99.90;;;;;;4987003;28;20042;-69
2022/11/03 12:51:53;;;;;;;8.57;4.82;;;13.40;99.90;;;;;;4988970;28;20037;-70
2022/11/03 12:54:20;;;;;;;19.23;9.32;;;13.40;99.90;;;;;;4988306;28;20044;-72
2022/11/03 12:56:46;;;;;;;10.68;5.25;;;13.30;99.90;;;;;;4987110;28;20038;-71
2022/11/03 12:59:12;;;;;;;11.55;5.22;;;13.30;99.90;;;;;;4970396;28;20491;-72
2022/11/03 13:01:37;;;;;;;11.48;5.45;;;13.30;99.90;;;;;;4977582;28;20038;-71
2022/11/03 13:04:04;;;;;;;15.07;6.30;;;13.30;99.90;;;;;;4986006;28;20030;-70
2022/11/03 13:06:31;;;;;;;13.20;6.60;;;13.20;99.90;;;;;;4988212;28;20053;-70
2022/11/03 13:08:56;;;;;;;13.88;7.55;;;13.10;99.90;;;;;;4986544;28;20030;-70
2022/11/03 13:14:06;;;;;;;10.82;6.45;;;13.00;99.90;;;;;;4988803;28;20545;-70
2022/11/03 13:16:32;;;;;;;12.75;5.57;;;12.90;99.90;;;;;;4989217;28;20034;-71
2022/11/03 13:18:58;;;;;;;17.88;8.75;;;13.00;99.90;;;;;;4987556;28;20034;-72
2022/11/03 13:21:23;;;;;;;14.15;7.18;;;13.00;99.90;;;;;;4981599;28;20027;-70
2022/11/03 13:23:50;;;;;;;14.05;7.50;;;12.90;99.90;;;;;;4995401;28;20081;-69